createdAt,value
2018-09-16T00:03:00.052Z,13.65
2018-09-16T00:08:58.148Z,19.65
2018-09-16T00:14:50.085Z,20.29
2018-09-16T00:20:45.081Z,18.61
2018-09-16T00:26:40.119Z,17.37
2018-09-16T00:32:39.122Z,21.72
2018-09-16T00:38:30.107Z,16.07
2018-09-16T00:44:28.488Z,18.64
2018-09-16T00:50:20.092Z,19.75
2018-09-16T00:56:19.002Z,17.15
2018-09-16T01:02:10.111Z,15.8
2018-09-16T01:08:07.711Z,18.65
2018-09-16T01:14:00.126Z,16.64
2018-09-16T01:19:55.136Z,23.18
2018-09-16T01:25:50.121Z,19.49
2018-09-16T01:31:45.147Z,18.04
2018-09-16T01:37:41.876Z,20.17
2018-09-16T01:43:35.127Z,20.54
2018-09-16T01:49:30.167Z,19.03
2018-09-16T01:55:28.428Z,18.92
2018-09-16T02:01:21.813Z,21.46
2018-09-16T02:07:15.162Z,19.86
2018-09-16T02:13:10.196Z,22.02
2018-09-16T02:19:06.558Z,20.77
2018-09-16T02:25:00.482Z,22.02
2018-09-16T02:30:55.208Z,22.68
2018-09-16T02:36:50.199Z,23.08
2018-09-16T02:42:45.190Z,26.51
2018-09-16T02:48:40.201Z,24
2018-09-16T02:54:35.168Z,23.33
2018-09-16T03:00:30.223Z,21
2018-09-16T03:06:25.220Z,18.79
2018-09-16T03:12:20.186Z,18.04
2018-09-16T03:18:15.197Z,23.1
2018-09-16T03:24:10.215Z,19.26
2018-09-16T03:30:05.279Z,18.25
2018-09-16T03:36:00.233Z,20.76
2018-09-16T03:41:55.243Z,22
2018-09-16T03:47:50.241Z,18.32
2018-09-16T03:53:45.225Z,19.43
2018-09-16T03:59:40.244Z,22.31
2018-09-16T04:05:35.246Z,22.56
2018-09-16T04:11:30.252Z,21.95
2018-09-16T04:17:25.239Z,20.97
2018-09-16T04:23:20.241Z,22.44
2018-09-16T04:29:15.340Z,32.86
2018-09-16T04:35:10.294Z,32.17
2018-09-16T04:41:05.276Z,23.54
2018-09-16T04:47:00.306Z,29.73
2018-09-16T04:52:55.278Z,23.93
2018-09-16T04:58:50.364Z,25.47
2018-09-16T05:04:45.337Z,28.54
2018-09-16T05:10:40.293Z,28.99
2018-09-16T05:16:35.307Z,25.53
2018-09-16T05:22:30.289Z,25.55
2018-09-16T05:28:25.297Z,29.07
2018-09-16T05:34:20.357Z,31.95
2018-09-16T05:40:15.310Z,22.58
2018-09-16T05:46:10.362Z,27.03
2018-09-16T05:52:05.308Z,27.68
2018-09-16T05:58:00.344Z,28.66
2018-09-16T06:03:55.361Z,25.27
2018-09-16T06:09:50.322Z,27.55
2018-09-16T06:15:45.345Z,24.73
2018-09-16T06:21:40.394Z,29.2
2018-09-16T06:27:35.360Z,27.21
2018-09-16T06:33:30.378Z,31.01
2018-09-16T06:39:25.363Z,29.12
2018-09-16T06:45:20.362Z,32.94
2018-09-16T06:51:15.367Z,26.53
2018-09-16T06:57:10.387Z,32.43
2018-09-16T07:03:05.366Z,35.02
2018-09-16T07:09:00.371Z,30.62
2018-09-16T07:14:55.380Z,29.11
2018-09-16T07:20:50.388Z,32.94
2018-09-16T07:26:45.498Z,29.57
2018-09-16T07:32:40.413Z,29.75
2018-09-16T07:38:35.443Z,28.82
2018-09-16T07:44:30.389Z,26.74
2018-09-16T07:50:25.433Z,27.85
2018-09-16T07:56:20.465Z,29.98
2018-09-16T08:02:15.429Z,25.15
2018-09-16T08:08:10.467Z,26.84
2018-09-16T08:14:05.439Z,23.13
2018-09-16T08:20:00.444Z,20.57
2018-09-16T08:25:55.415Z,19.71
2018-09-16T08:31:50.450Z,18.24
2018-09-16T08:37:45.468Z,17.43
2018-09-16T08:43:40.480Z,19.79
2018-09-16T08:49:35.449Z,15.44
2018-09-16T08:55:30.533Z,16.45
2018-09-16T09:01:25.491Z,14.6
2018-09-16T09:07:20.459Z,16.53
2018-09-16T09:13:15.477Z,15.5
2018-09-16T09:19:10.497Z,14.13
2018-09-16T09:25:05.529Z,18.65
2018-09-16T09:31:00.514Z,12.04
2018-09-16T09:36:55.504Z,11.63
2018-09-16T09:42:50.593Z,11.4
2018-09-16T09:48:45.512Z,11.03
2018-09-16T09:54:40.526Z,9.69
2018-09-16T10:00:35.550Z,11.15
2018-09-16T10:06:30.588Z,8.58
2018-09-16T10:12:25.515Z,12.43
2018-09-16T10:18:20.582Z,8.14
2018-09-16T10:24:15.548Z,7.92
2018-09-16T10:30:10.549Z,8.5
2018-09-16T10:36:05.559Z,7.3
2018-09-16T10:42:00.600Z,6.39
2018-09-16T10:47:55.549Z,5.72
2018-09-16T10:53:50.638Z,5.36
2018-09-16T10:59:45.594Z,4.45
2018-09-16T11:05:40.586Z,6.37
2018-09-16T11:11:35.585Z,5.11
2018-09-16T11:17:30.579Z,5.57
2018-09-16T11:23:25.636Z,4.23
2018-09-16T11:29:20.641Z,4.83
2018-09-16T11:35:15.604Z,6.01
2018-09-16T11:41:10.627Z,4.89
2018-09-16T11:47:05.697Z,4.71
2018-09-16T11:53:00.619Z,8.71
2018-09-16T11:58:55.694Z,5.5
2018-09-16T12:04:50.641Z,4.43
2018-09-16T12:10:45.659Z,5.51
2018-09-16T12:16:40.645Z,5.05
2018-09-16T12:22:35.648Z,4.29
2018-09-16T12:28:30.713Z,4.96
2018-09-16T12:34:25.667Z,8.89
2018-09-16T12:40:20.679Z,6.54
2018-09-16T12:46:15.677Z,7.72
2018-09-16T12:52:10.683Z,4.93
2018-09-16T12:58:05.684Z,4.93
2018-09-16T13:04:00.696Z,7.48
2018-09-16T13:09:55.697Z,4.34
2018-09-16T13:15:50.721Z,6.64
2018-09-16T13:21:45.768Z,7.69
2018-09-16T13:27:40.705Z,5.38
2018-09-16T13:33:35.748Z,5.42
2018-09-16T13:39:30.723Z,3.33
2018-09-16T13:45:25.706Z,3.97
2018-09-16T13:51:20.751Z,5.02
2018-09-16T13:57:15.771Z,6
2018-09-16T14:03:10.765Z,7.95
2018-09-16T14:09:05.752Z,4.19
2018-09-16T14:15:00.836Z,5.08
2018-09-16T14:20:55.842Z,7.46
2018-09-16T14:26:50.751Z,7.42
2018-09-16T14:32:45.768Z,4.86
2018-09-16T14:38:40.795Z,4.46
2018-09-16T14:44:35.789Z,7.93
2018-09-16T14:50:30.782Z,6.78
2018-09-16T14:56:25.797Z,6.36
2018-09-16T15:02:20.795Z,12.51
2018-09-16T15:08:15.809Z,7.72
2018-09-16T15:14:10.784Z,6.32
2018-09-16T15:20:05.809Z,5.1
2018-09-16T15:26:00.854Z,8.11
2018-09-16T15:31:55.814Z,5.6
2018-09-16T15:37:50.827Z,6.18
2018-09-16T15:43:45.857Z,4.23
2018-09-16T15:49:40.830Z,5.4
2018-09-16T15:55:35.876Z,6.14
2018-09-16T16:01:30.893Z,3.65
2018-09-16T16:07:25.863Z,5.71
2018-09-16T16:13:20.940Z,5.55
2018-09-16T16:19:15.886Z,3.96
2018-09-16T16:25:10.875Z,3.81
2018-09-16T16:31:05.890Z,9.57
2018-09-16T16:37:00.931Z,4.14
2018-09-16T16:42:55.950Z,4.95
2018-09-16T16:48:50.900Z,8.54
2018-09-16T16:54:45.900Z,7.97
2018-09-16T17:00:40.905Z,6.26
2018-09-16T17:06:35.914Z,5.96
2018-09-16T17:12:30.917Z,9.17
2018-09-16T17:18:25.913Z,8.5
2018-09-16T17:24:20.927Z,8.89
2018-09-16T17:30:15.934Z,8.34
2018-09-16T17:36:10.922Z,6.89
2018-09-16T17:42:05.933Z,8.76
2018-09-16T17:48:00.954Z,5.65
2018-09-16T17:53:55.988Z,6.77
2018-09-16T17:59:50.980Z,5.6
2018-09-16T18:05:46.008Z,5.3
2018-09-16T18:11:40.943Z,7.3
2018-09-16T18:17:35.987Z,11.77
2018-09-16T18:23:30.980Z,7.2
2018-09-16T18:29:26.034Z,10.33
2018-09-16T18:35:20.979Z,5.98
2018-09-16T18:41:15.997Z,10.04
2018-09-16T18:47:10.975Z,8.47
2018-09-16T18:53:05.998Z,12.72
2018-09-16T18:59:00.994Z,6.67
2018-09-16T19:04:56.011Z,13.03
2018-09-16T19:10:51.002Z,7.63
2018-09-16T19:16:46.015Z,14.07
2018-09-16T19:22:41.000Z,9.76
2018-09-16T19:28:36.020Z,7.59
2018-09-16T19:34:31.082Z,9.31
2018-09-16T19:40:26.113Z,8.88
2018-09-16T19:46:21.044Z,7.58
2018-09-16T19:52:16.040Z,9.71
2018-09-16T19:58:11.046Z,9.3
2018-09-16T20:04:06.063Z,6.87
2018-09-16T20:10:01.168Z,8.25
2018-09-16T20:15:56.061Z,10.93
2018-09-16T20:21:51.132Z,7.83
2018-09-16T20:27:46.077Z,9.7
2018-09-16T20:33:41.123Z,12.07
2018-09-16T20:39:36.088Z,8.1
2018-09-16T20:45:31.086Z,12.77
2018-09-16T20:51:26.089Z,9.03
2018-09-16T20:57:21.096Z,6.91
2018-09-16T21:03:16.079Z,8.74
2018-09-16T21:09:11.111Z,12.91
2018-09-16T21:15:06.135Z,7.06
2018-09-16T21:21:01.141Z,9.42
2018-09-16T21:26:56.114Z,9.85
2018-09-16T21:32:51.134Z,8.05
2018-09-16T21:38:46.133Z,8.72
2018-09-16T21:44:41.129Z,7.41
2018-09-16T21:50:36.200Z,6.15
2018-09-16T21:56:31.156Z,9.63
2018-09-16T22:02:26.130Z,6.46
2018-09-16T22:08:21.169Z,7.25
2018-09-16T22:14:16.154Z,10.38
2018-09-16T22:20:11.170Z,7.51
2018-09-16T22:26:06.155Z,5.96
2018-09-16T22:32:01.181Z,9.11
2018-09-16T22:37:56.227Z,8.45
2018-09-16T22:43:51.187Z,6.63
2018-09-16T22:49:46.188Z,7.75
2018-09-16T22:55:41.197Z,11.97
2018-09-16T23:01:36.247Z,10.22
2018-09-16T23:07:31.260Z,8.87
2018-09-16T23:13:26.203Z,11.02
2018-09-16T23:19:21.202Z,8.86
2018-09-16T23:25:16.263Z,6.62
2018-09-16T23:31:11.211Z,10.56
2018-09-16T23:37:06.235Z,8.92
2018-09-16T23:43:01.217Z,8.96
2018-09-16T23:48:56.245Z,8.53
2018-09-16T23:54:51.250Z,8.46
